createdAt,value
2022-09-07T00:01:07.932Z,13.21
2022-09-07T00:03:37.044Z,13.25
2022-09-07T00:06:07.561Z,13.36
2022-09-07T00:08:36.574Z,13.32
2022-09-07T00:11:07.520Z,13.40
2022-09-07T00:13:37.171Z,13.36
2022-09-07T00:16:10.748Z,12.97
2022-09-07T00:18:42.513Z,12.95
2022-09-07T00:21:15.628Z,12.98
2022-09-07T00:23:44.229Z,12.95
2022-09-07T00:26:14.528Z,12.86
2022-09-07T00:28:43.128Z,12.89
2022-09-07T00:31:20.127Z,12.80
2022-09-07T00:33:49.403Z,12.92
2022-09-07T00:36:18.558Z,12.86
2022-09-07T00:38:46.972Z,12.88
2022-09-07T00:41:16.136Z,12.95
2022-09-07T00:43:49.817Z,12.80
2022-09-07T00:46:20.506Z,12.76
2022-09-07T00:49:03.791Z,12.46
2022-09-07T00:51:33.944Z,12.39
2022-09-07T00:54:06.434Z,12.66
2022-09-07T00:56:36.679Z,12.63
2022-09-07T00:59:05.329Z,12.62
2022-09-07T01:01:34.355Z,12.75
2022-09-07T01:04:03.076Z,12.69
2022-09-07T01:06:38.663Z,12.73
2022-09-07T01:09:12.127Z,12.66
2022-09-07T01:11:40.333Z,12.54
2022-09-07T01:14:11.390Z,12.42
2022-09-07T01:16:52.512Z,12.37
2022-09-07T01:19:57.224Z,12.50
2022-09-07T01:22:49.997Z,12.49
2022-09-07T01:25:35.748Z,12.44
2022-09-07T01:28:31.579Z,12.32
2022-09-07T01:31:18.396Z,12.38
2022-09-07T01:33:59.666Z,12.46
2022-09-07T01:36:58.356Z,12.40
2022-09-07T01:39:35.641Z,12.53
2022-09-07T01:42:16.496Z,12.55
2022-09-07T01:44:50.627Z,12.44
2022-09-07T01:47:32.268Z,12.43
2022-09-07T01:50:03.749Z,12.48
2022-09-07T01:52:32.326Z,12.50
2022-09-07T01:55:15.471Z,12.50
2022-09-07T01:57:46.751Z,12.47
2022-09-07T02:00:16.221Z,12.51
2022-09-07T02:03:06.354Z,12.44
2022-09-07T02:05:54.377Z,12.43
2022-09-07T02:08:47.313Z,12.61
2022-09-07T02:11:18.887Z,12.48
2022-09-07T02:13:53.965Z,12.55
2022-09-07T02:16:24.904Z,12.51
2022-09-07T02:19:01.183Z,12.35
2022-09-07T02:21:39.476Z,12.43
2022-09-07T02:24:15.217Z,12.44
2022-09-07T02:26:43.622Z,12.27
2022-09-07T02:29:12.619Z,12.32
2022-09-07T02:31:41.220Z,12.17
2022-09-07T02:34:09.534Z,12.22
2022-09-07T02:36:41.886Z,12.29
2022-09-07T02:39:10.226Z,12.38
2022-09-07T02:41:40.784Z,12.40
2022-09-07T02:44:17.539Z,12.37
2022-09-07T02:47:04.568Z,12.26
2022-09-07T02:49:54.084Z,12.40
2022-09-07T02:52:29.344Z,12.38
2022-09-07T02:55:14.169Z,12.30
2022-09-07T02:57:51.540Z,12.15
2022-09-07T03:00:26.351Z,12.20
2022-09-07T03:03:03.749Z,12.34
2022-09-07T03:05:45.921Z,12.11
2022-09-07T03:08:32.244Z,12.03
2022-09-07T03:11:01.747Z,12.16
2022-09-07T03:13:30.232Z,12.03
2022-09-07T03:15:58.662Z,12.00
2022-09-07T03:18:28.746Z,12.01
2022-09-07T03:20:57.255Z,11.90
2022-09-07T03:23:26.108Z,11.92
2022-09-07T03:25:54.624Z,11.81
2022-09-07T03:28:22.946Z,11.72
2022-09-07T03:30:51.404Z,11.90
2022-09-07T03:33:20.451Z,11.89
2022-09-07T03:35:57.888Z,11.76
2022-09-07T03:38:26.851Z,11.48
2022-09-07T03:41:00.134Z,11.63
2022-09-07T03:43:29.012Z,11.62
2022-09-07T03:46:01.865Z,11.62
2022-09-07T03:48:36.712Z,11.62
2022-09-07T03:51:09.431Z,11.58
2022-09-07T03:53:39.003Z,11.68
2022-09-07T03:56:09.651Z,11.49
2022-09-07T03:58:38.057Z,11.46
2022-09-07T04:01:08.485Z,11.48
2022-09-07T04:03:37.117Z,11.50
2022-09-07T04:06:05.636Z,11.28
2022-09-07T04:08:34.866Z,11.32
2022-09-07T04:11:04.199Z,11.41
2022-09-07T04:13:33.238Z,11.34
2022-09-07T04:16:09.087Z,11.21
2022-09-07T04:18:37.710Z,11.38
2022-09-07T04:21:08.400Z,11.49
2022-09-07T04:23:40.737Z,11.35
2022-09-07T04:26:16.858Z,11.07
2022-09-07T04:28:45.912Z,11.34
2022-09-07T04:31:16.315Z,11.25
2022-09-07T04:33:45.452Z,11.40
2022-09-07T04:36:14.777Z,11.52
2022-09-07T04:38:43.047Z,11.45
2022-09-07T04:41:13.997Z,11.57
2022-09-07T04:43:43.633Z,11.77
2022-09-07T04:46:36.220Z,11.94
2022-09-07T04:49:07.191Z,11.61
2022-09-07T04:51:35.933Z,11.69
2022-09-07T04:54:04.467Z,11.85
2022-09-07T04:56:32.953Z,11.81
2022-09-07T04:59:01.809Z,11.91
2022-09-07T05:01:30.168Z,11.93
2022-09-07T05:04:01.011Z,12.02
2022-09-07T05:06:29.357Z,12.18
2022-09-07T05:08:58.924Z,12.21
2022-09-07T05:11:29.427Z,12.30
2022-09-07T05:13:59.194Z,12.31
2022-09-07T05:16:27.620Z,12.45
2022-09-07T05:18:58.050Z,12.59
2022-09-07T05:21:28.582Z,12.50
2022-09-07T05:23:58.287Z,12.66
2022-09-07T05:26:28.355Z,12.71
2022-09-07T05:31:46.792Z,12.89
2022-09-07T05:34:31.646Z,12.88
2022-09-07T05:37:00.875Z,13.00
2022-09-07T05:39:29.897Z,13.09
2022-09-07T05:41:58.931Z,13.19
2022-09-07T05:47:12.315Z,13.28
2022-09-07T05:49:40.639Z,13.39
2022-09-07T05:52:09.261Z,13.56
2022-09-07T05:54:37.756Z,13.47
2022-09-07T05:57:07.581Z,13.46
2022-09-07T05:59:35.891Z,13.59
2022-09-07T06:02:04.589Z,13.72
2022-09-07T06:04:33.076Z,13.85
2022-09-07T06:12:38.717Z,14.05
2022-09-07T06:15:07.676Z,14.00
2022-09-07T06:17:37.254Z,14.12
2022-09-07T06:20:06.894Z,14.13
2022-09-07T06:22:38.440Z,14.31
2022-09-07T06:25:07.035Z,14.32
2022-09-07T06:27:35.495Z,14.37
2022-09-07T06:30:04.709Z,14.51
2022-09-07T06:32:43.557Z,14.46
2022-09-07T06:35:12.953Z,14.53
2022-09-07T06:37:41.473Z,14.59
2022-09-07T06:40:11.373Z,14.79
2022-09-07T06:42:40.545Z,14.89
2022-09-07T06:45:11.881Z,15.05
2022-09-07T06:47:40.917Z,15.04
2022-09-07T06:50:10.436Z,14.98
2022-09-07T06:55:28.142Z,15.16
2022-09-07T06:57:56.584Z,15.18
2022-09-07T07:00:25.437Z,15.27
2022-09-07T07:02:53.957Z,15.43
2022-09-07T07:05:22.394Z,15.48
2022-09-07T07:07:50.734Z,15.49
2022-09-07T07:10:24.229Z,15.73
2022-09-07T07:12:57.835Z,15.82
2022-09-07T07:15:29.280Z,15.83
2022-09-07T07:18:05.402Z,15.88
2022-09-07T07:20:38.811Z,16.09
2022-09-07T07:23:08.485Z,16.01
2022-09-07T07:25:36.946Z,16.08
2022-09-07T07:30:58.357Z,16.26
2022-09-07T07:33:31.154Z,16.20
2022-09-07T07:36:19.139Z,16.26
2022-09-07T07:44:20.819Z,16.66
2022-09-07T07:46:50.533Z,16.80
2022-09-07T07:49:19.786Z,16.71
2022-09-07T07:54:40.227Z,16.80
2022-09-07T07:57:08.693Z,16.94
2022-09-07T07:59:37.063Z,17.11
2022-09-07T08:02:06.314Z,17.11
2022-09-07T08:04:35.482Z,17.30
2022-09-07T08:07:09.520Z,17.33
2022-09-07T08:09:42.729Z,17.29
2022-09-07T08:12:13.263Z,17.39
2022-09-07T08:14:41.871Z,17.58
2022-09-07T08:17:12.659Z,17.83
2022-09-07T08:19:41.057Z,17.63
2022-09-07T08:22:10.213Z,17.93
2022-09-07T08:24:38.559Z,17.94
2022-09-07T08:27:07.080Z,17.82
2022-09-07T08:29:35.871Z,18.00
2022-09-07T08:32:05.574Z,18.31
2022-09-07T08:34:37.213Z,18.28
2022-09-07T08:37:05.597Z,18.49
2022-09-07T08:39:34.291Z,18.54
2022-09-07T08:42:16.602Z,18.71
2022-09-07T08:44:51.269Z,18.86
2022-09-07T08:47:48.884Z,18.89
2022-09-07T08:50:24.611Z,18.96
2022-09-07T08:52:58.820Z,19.13
2022-09-07T08:55:31.454Z,19.37
2022-09-07T08:58:21.901Z,19.28
2022-09-07T09:06:55.738Z,19.66
2022-09-07T09:09:47.173Z,19.69
2022-09-07T09:13:14.435Z,19.72
2022-09-07T09:16:07.140Z,19.85
2022-09-07T09:18:58.697Z,19.96
2022-09-07T09:21:28.109Z,19.96
2022-09-07T09:24:01.122Z,20.06
2022-09-07T09:26:30.321Z,20.40
2022-09-07T09:28:58.913Z,20.43
2022-09-07T09:31:30.935Z,20.51
2022-09-07T09:34:05.615Z,20.49
2022-09-07T09:36:41.088Z,20.56
2022-09-07T09:39:32.444Z,20.57
2022-09-07T09:42:12.663Z,20.60
2022-09-07T09:44:41.034Z,20.75
2022-09-07T09:47:29.852Z,20.97
2022-09-07T09:52:29.169Z,20.77
2022-09-07T09:53:05.560Z,20.89
2022-09-07T09:55:36.597Z,21.06
2022-09-07T10:01:35.487Z,21.26
2022-09-07T10:04:34.080Z,21.35
2022-09-07T10:07:14.130Z,21.36
2022-09-07T10:09:45.857Z,21.42
2022-09-07T10:12:40.337Z,21.72
2022-09-07T10:15:09.128Z,21.72
2022-09-07T10:17:47.588Z,21.77
2022-09-07T10:20:21.094Z,21.83
2022-09-07T10:22:52.202Z,22.07
2022-09-07T10:25:29.410Z,21.88
2022-09-07T10:28:18.644Z,22.12
2022-09-07T10:31:15.365Z,21.91
2022-09-07T10:36:39.238Z,22.14
2022-09-07T10:39:09.361Z,22.19
2022-09-07T10:41:49.303Z,22.39
2022-09-07T10:44:23.814Z,22.37
2022-09-07T10:46:59.473Z,22.52
2022-09-07T10:49:32.973Z,22.62
2022-09-07T10:52:23.263Z,22.58
2022-09-07T10:54:55.395Z,22.57
2022-09-07T10:57:59.836Z,22.62
2022-09-07T11:00:30.357Z,22.78
2022-09-07T11:03:32.719Z,22.96
2022-09-07T11:06:37.230Z,23.06
2022-09-07T11:09:18.562Z,23.03
2022-09-07T11:12:05.775Z,23.09
2022-09-07T11:15:19.759Z,23.04
2022-09-07T11:17:54.494Z,23.12
2022-09-07T11:20:26.305Z,22.98
2022-09-07T11:23:18.561Z,23.13
2022-09-07T11:26:05.654Z,22.97
2022-09-07T11:29:29.993Z,23.24
2022-09-07T11:35:51.309Z,23.51
2022-09-07T11:38:33.747Z,23.41
2022-09-07T11:41:12.017Z,23.61
2022-09-07T11:43:47.963Z,23.59
2022-09-07T11:46:45.907Z,23.57
2022-09-07T11:49:26.583Z,23.51
2022-09-07T11:52:05.411Z,23.65
2022-09-07T11:54:52.221Z,23.68
2022-09-07T11:57:39.000Z,23.58
2022-09-07T12:00:30.092Z,23.65
2022-09-07T12:03:14.323Z,23.75
2022-09-07T12:06:02.028Z,23.76
2022-09-07T12:08:43.764Z,23.89
2022-09-07T12:11:49.021Z,23.92
2022-09-07T12:14:33.257Z,24.02
2022-09-07T12:17:32.035Z,23.92
2022-09-07T12:20:19.780Z,23.73
2022-09-07T12:23:07.566Z,23.82
2022-09-07T12:25:36.043Z,23.92
2022-09-07T12:28:04.607Z,24.03
2022-09-07T12:30:36.432Z,23.94
2022-09-07T12:33:20.209Z,23.99
2022-09-07T12:35:48.973Z,23.94
2022-09-07T12:38:17.310Z,23.88
2022-09-07T12:40:54.720Z,23.94
2022-09-07T12:43:22.997Z,23.96
2022-09-07T12:45:52.859Z,24.09
2022-09-07T12:48:53.525Z,23.98
2022-09-07T12:54:38.214Z,24.15
2022-09-07T12:57:32.706Z,24.11
2022-09-07T13:00:07.355Z,23.85
2022-09-07T13:02:50.926Z,23.79
2022-09-07T13:05:31.592Z,23.97
2022-09-07T13:08:28.272Z,23.91
2022-09-07T13:10:56.624Z,23.82
2022-09-07T13:16:32.226Z,24.03
2022-09-07T13:19:03.339Z,23.99
2022-09-07T13:21:44.134Z,23.91
2022-09-07T13:27:33.307Z,23.94
2022-09-07T13:30:17.052Z,23.88
2022-09-07T13:35:35.005Z,24.19
2022-09-07T13:38:04.311Z,24.11
2022-09-07T13:40:39.236Z,24.07
2022-09-07T13:43:07.551Z,23.99
2022-09-07T13:46:02.401Z,23.99
2022-09-07T13:49:04.832Z,24.03
2022-09-07T13:51:39.398Z,24.23
2022-09-07T13:54:29.337Z,24.12
2022-09-07T13:57:16.465Z,24.27
2022-09-07T13:59:44.863Z,24.18
2022-09-07T14:02:29.308Z,24.18
2022-09-07T14:04:58.547Z,24.11
2022-09-07T14:07:28.682Z,24.06
2022-09-07T14:10:21.589Z,24.02
2022-09-07T14:12:56.637Z,23.97
2022-09-07T14:15:35.098Z,23.92
2022-09-07T14:18:14.846Z,23.92
2022-09-07T14:20:50.984Z,23.89
2022-09-07T14:23:32.755Z,23.91
2022-09-07T14:26:22.629Z,23.78
2022-09-07T14:28:53.735Z,23.91
2022-09-07T14:31:23.695Z,23.87
2022-09-07T14:34:00.088Z,23.98
2022-09-07T14:36:46.102Z,23.92
2022-09-07T14:39:16.115Z,23.76
2022-09-07T14:41:45.195Z,23.69
2022-09-07T14:44:32.848Z,23.84
2022-09-07T14:47:08.055Z,23.76
2022-09-07T14:49:38.212Z,23.73
2022-09-07T14:52:06.563Z,23.71
2022-09-07T14:54:35.622Z,23.66
2022-09-07T14:57:32.094Z,23.71
2022-09-07T15:00:33.150Z,23.70
2022-09-07T15:03:21.518Z,23.72
2022-09-07T15:05:50.602Z,23.61
2022-09-07T15:08:20.701Z,23.67
2022-09-07T15:13:39.202Z,23.49
2022-09-07T15:16:08.817Z,23.50
2022-09-07T15:18:54.537Z,23.56
2022-09-07T15:21:27.413Z,23.49
2022-09-07T15:23:57.486Z,23.40
2022-09-07T15:29:31.929Z,23.33
2022-09-07T15:32:04.962Z,23.35
2022-09-07T15:34:34.702Z,23.25
2022-09-07T15:37:04.166Z,23.20
2022-09-07T15:39:52.814Z,23.15
2022-09-07T15:45:10.168Z,23.09
2022-09-07T15:47:54.045Z,23.16
2022-09-07T15:50:23.665Z,23.11
2022-09-07T15:52:52.129Z,22.97
2022-09-07T15:55:20.605Z,22.68
2022-09-07T15:57:52.796Z,22.68
2022-09-07T16:00:26.693Z,22.44
2022-09-07T16:03:11.053Z,22.34
2022-09-07T16:05:44.403Z,22.19
2022-09-07T16:11:23.834Z,22.03
2022-09-07T16:14:02.254Z,21.93
2022-09-07T16:19:21.027Z,21.63
2022-09-07T16:21:50.683Z,21.56
2022-09-07T16:24:20.310Z,21.48
2022-09-07T16:26:48.693Z,21.40
2022-09-07T16:29:17.781Z,21.23
2022-09-07T16:34:35.292Z,21.06
2022-09-07T16:37:06.058Z,20.96
2022-09-07T16:39:35.055Z,20.90
2022-09-07T16:42:03.696Z,20.77
2022-09-07T16:44:31.997Z,20.96
2022-09-07T16:47:00.296Z,20.84
2022-09-07T16:49:31.490Z,20.74
2022-09-07T16:52:00.978Z,20.71
2022-09-07T16:54:29.273Z,20.60
2022-09-07T16:56:58.310Z,20.55
2022-09-07T16:59:27.089Z,20.52
2022-09-07T17:01:55.627Z,20.33
2022-09-07T17:04:24.202Z,20.12
2022-09-07T17:06:54.693Z,20.07
2022-09-07T17:09:29.118Z,19.97
2022-09-07T17:11:58.354Z,19.93
2022-09-07T17:14:29.617Z,19.94
2022-09-07T17:16:59.113Z,19.83
2022-09-07T17:19:29.441Z,19.73
2022-09-07T17:22:00.026Z,19.71
2022-09-07T17:24:29.290Z,19.78
2022-09-07T17:27:03.265Z,19.73
2022-09-07T17:29:38.484Z,19.51
2022-09-07T17:32:24.477Z,19.46
2022-09-07T17:34:56.970Z,19.35
2022-09-07T17:37:26.066Z,19.30
2022-09-07T17:39:58.031Z,19.28
2022-09-07T17:43:38.974Z,19.28
2022-09-07T17:45:18.803Z,19.08
2022-09-07T17:47:51.293Z,19.07
2022-09-07T17:50:20.569Z,19.03
2022-09-07T17:52:52.976Z,18.93
2022-09-07T17:55:27.346Z,18.96
2022-09-07T17:58:04.693Z,19.03
2022-09-07T18:00:35.545Z,19.01
2022-09-07T18:03:13.014Z,18.84
2022-09-07T18:05:42.268Z,18.70
2022-09-07T18:08:13.315Z,18.54
2022-09-07T18:13:35.916Z,18.52
2022-09-07T18:16:21.072Z,18.55
2022-09-07T18:18:53.755Z,18.58
2022-09-07T18:21:36.950Z,18.55
2022-09-07T18:24:18.708Z,18.45
2022-09-07T18:26:51.019Z,18.14
2022-09-07T18:29:33.674Z,18.05
2022-09-07T18:32:07.762Z,18.26
2022-09-07T18:34:38.351Z,18.32
2022-09-07T18:37:08.040Z,18.10
2022-09-07T18:39:36.860Z,18.16
2022-09-07T18:42:07.890Z,18.25
2022-09-07T18:47:36.255Z,17.92
2022-09-07T18:50:04.995Z,17.82
2022-09-07T18:52:52.103Z,17.61
2022-09-07T18:55:36.013Z,17.72
2022-09-07T18:58:06.603Z,17.61
2022-09-07T19:00:41.142Z,17.44
2022-09-07T19:03:15.053Z,17.41
2022-09-07T19:05:50.698Z,17.43
2022-09-07T19:08:22.729Z,17.78
2022-09-07T19:10:56.312Z,17.52
2022-09-07T19:13:33.856Z,17.21
2022-09-07T19:16:14.582Z,17.21
2022-09-07T19:18:49.533Z,17.40
2022-09-07T19:21:23.749Z,17.32
2022-09-07T19:23:59.776Z,17.21
2022-09-07T19:26:38.961Z,17.05
2022-09-07T19:29:15.972Z,16.94
2022-09-07T19:32:05.236Z,16.86
2022-09-07T19:34:40.749Z,16.80
2022-09-07T19:37:12.548Z,16.99
2022-09-07T19:39:42.558Z,16.94
2022-09-07T19:42:11.516Z,17.11
2022-09-07T19:44:41.071Z,17.15
2022-09-07T19:47:12.685Z,16.83
2022-09-07T19:49:42.165Z,16.55
2022-09-07T19:52:10.747Z,16.46
2022-09-07T19:54:43.293Z,16.35
2022-09-07T19:57:12.469Z,16.52
2022-09-07T19:59:51.384Z,16.25
2022-09-07T20:02:27.600Z,16.18
2022-09-07T20:05:00.945Z,16.21
2022-09-07T20:07:31.885Z,16.45
2022-09-07T20:10:01.482Z,16.37
2022-09-07T20:12:30.471Z,16.22
2022-09-07T20:14:59.383Z,16.40
2022-09-07T20:17:35.157Z,16.24
2022-09-07T20:20:05.465Z,16.49
2022-09-07T20:22:34.687Z,16.27
2022-09-07T20:25:03.085Z,15.93
2022-09-07T20:27:36.126Z,16.22
2022-09-07T20:30:05.537Z,16.21
2022-09-07T20:32:34.801Z,16.25
2022-09-07T20:35:04.001Z,16.00
2022-09-07T20:37:32.301Z,16.02
2022-09-07T20:40:00.668Z,15.96
2022-09-07T20:42:29.098Z,16.07
2022-09-07T20:44:57.570Z,15.95
2022-09-07T20:47:26.294Z,15.99
2022-09-07T20:49:54.727Z,15.94
2022-09-07T20:52:23.163Z,15.89
2022-09-07T20:54:51.494Z,15.90
2022-09-07T20:57:19.834Z,15.99
2022-09-07T20:59:48.150Z,16.11
2022-09-07T21:02:16.583Z,15.94
2022-09-07T21:04:45.388Z,15.68
2022-09-07T21:07:14.276Z,15.69
2022-09-07T21:09:42.559Z,15.77
2022-09-07T21:12:11.651Z,15.72
2022-09-07T21:14:41.328Z,15.88
2022-09-07T21:17:09.686Z,15.85
2022-09-07T21:19:38.362Z,15.50
2022-09-07T21:22:07.271Z,15.49
2022-09-07T21:24:36.167Z,15.62
2022-09-07T21:27:04.688Z,15.70
2022-09-07T21:29:33.583Z,15.78
2022-09-07T21:32:03.060Z,15.60
2022-09-07T21:34:33.058Z,15.39
2022-09-07T21:37:01.399Z,15.28
2022-09-07T21:39:29.626Z,15.39
2022-09-07T21:41:58.120Z,15.44
2022-09-07T21:44:26.442Z,15.55
2022-09-07T21:46:54.802Z,15.45
2022-09-07T21:49:23.167Z,15.46
2022-09-07T21:51:51.479Z,15.45
2022-09-07T21:54:19.732Z,15.38
2022-09-07T21:56:49.377Z,15.42
2022-09-07T21:59:17.650Z,14.94
2022-09-07T22:01:46.517Z,15.41
2022-09-07T22:04:15.486Z,15.38
2022-09-07T22:06:44.182Z,15.14
2022-09-07T22:09:12.471Z,15.11
2022-09-07T22:11:45.302Z,14.75
2022-09-07T22:14:15.965Z,15.00
2022-09-07T22:16:44.377Z,15.17
2022-09-07T22:19:12.953Z,15.05
2022-09-07T22:21:41.270Z,14.83
2022-09-07T22:24:11.312Z,14.82
2022-09-07T22:26:39.606Z,15.04
2022-09-07T22:29:08.691Z,15.10
2022-09-07T22:31:37.673Z,14.79
2022-09-07T22:34:10.528Z,14.75
2022-09-07T22:36:43.356Z,14.98
2022-09-07T22:39:18.361Z,15.00
2022-09-07T22:41:47.484Z,15.10
2022-09-07T22:44:34.211Z,14.66
2022-09-07T22:47:58.127Z,14.90
2022-09-07T22:50:26.469Z,14.77
2022-09-07T22:52:54.741Z,14.35
2022-09-07T22:55:22.996Z,14.64
2022-09-07T22:57:51.837Z,14.53
2022-09-07T23:00:20.058Z,14.75
2022-09-07T23:02:48.372Z,14.51
2022-09-07T23:05:17.358Z,14.40
2022-09-07T23:07:49.199Z,14.36
2022-09-07T23:10:19.229Z,14.25
2022-09-07T23:12:47.555Z,14.48
2022-09-07T23:15:15.942Z,14.52
2022-09-07T23:17:44.283Z,14.35
2022-09-07T23:20:12.610Z,14.54
2022-09-07T23:22:43.709Z,14.58
2022-09-07T23:25:12.094Z,14.51
2022-09-07T23:27:40.939Z,14.36
2022-09-07T23:30:09.803Z,14.26
2022-09-07T23:32:38.087Z,14.40
2022-09-07T23:35:07.922Z,14.55
2022-09-07T23:37:36.113Z,14.38
2022-09-07T23:40:04.988Z,14.51
2022-09-07T23:42:33.319Z,14.48
2022-09-07T23:45:01.677Z,14.62
2022-09-07T23:47:29.982Z,14.46
2022-09-07T23:49:58.248Z,14.23
2022-09-07T23:52:26.439Z,14.29
2022-09-07T23:54:54.713Z,14.03
2022-09-07T23:57:24.081Z,14.21
2022-09-07T23:59:52.958Z,14.07
